sensor_id;sensor_type;location;lat;lon;timestamp;P1;durP1;ratioP1;P2;durP2;ratioP2
53253;SDS011;75200;53.048;7.552;2024-02-04T00:00:02;12.93;;;4.40;;
53253;SDS011;75200;53.048;7.552;2024-02-04T00:02:28;18.23;;;5.40;;
53253;SDS011;75200;53.048;7.552;2024-02-04T00:04:54;16.02;;;5.13;;
53253;SDS011;75200;53.048;7.552;2024-02-04T00:07:20;13.85;;;5.03;;
53253;SDS011;75200;53.048;7.552;2024-02-04T00:09:46;19.55;;;5.93;;
53253;SDS011;75200;53.048;7.552;2024-02-04T00:12:12;18.38;;;6.00;;
53253;SDS011;75200;53.048;7.552;2024-02-04T00:14:38;13.77;;;5.07;;
53253;SDS011;75200;53.048;7.552;2024-02-04T00:17:04;15.32;;;6.22;;
53253;SDS011;75200;53.048;7.552;2024-02-04T00:19:30;20.23;;;6.10;;
53253;SDS011;75200;53.048;7.552;2024-02-04T00:21:56;25.05;;;7.25;;
53253;SDS011;75200;53.048;7.552;2024-02-04T00:24:23;17.45;;;6.32;;
53253;SDS011;75200;53.048;7.552;2024-02-04T00:26:49;20.10;;;6.07;;
53253;SDS011;75200;53.048;7.552;2024-02-04T00:29:14;20.88;;;7.07;;
53253;SDS011;75200;53.048;7.552;2024-02-04T00:31:40;28.08;;;7.00;;
53253;SDS011;75200;53.048;7.552;2024-02-04T00:34:07;17.20;;;6.07;;
53253;SDS011;75200;53.048;7.552;2024-02-04T00:36:32;21.60;;;5.78;;
53253;SDS011;75200;53.048;7.552;2024-02-04T00:38:59;15.32;;;5.80;;
53253;SDS011;75200;53.048;7.552;2024-02-04T00:41:25;18.42;;;5.80;;
53253;SDS011;75200;53.048;7.552;2024-02-04T00:43:51;20.70;;;5.90;;
53253;SDS011;75200;53.048;7.552;2024-02-04T00:46:17;20.23;;;6.05;;
53253;SDS011;75200;53.048;7.552;2024-02-04T00:48:44;12.93;;;4.88;;
53253;SDS011;75200;53.048;7.552;2024-02-04T00:51:10;17.38;;;4.57;;
53253;SDS011;75200;53.048;7.552;2024-02-04T00:53:38;14.07;;;4.57;;
53253;SDS011;75200;53.048;7.552;2024-02-04T00:56:04;17.83;;;5.13;;
53253;SDS011;75200;53.048;7.552;2024-02-04T00:58:30;19.15;;;5.25;;
53253;SDS011;75200;53.048;7.552;2024-02-04T01:00:57;13.13;;;4.20;;
53253;SDS011;75200;53.048;7.552;2024-02-04T01:03:23;14.85;;;4.07;;
53253;SDS011;75200;53.048;7.552;2024-02-04T01:05:50;17.58;;;4.78;;
53253;SDS011;75200;53.048;7.552;2024-02-04T01:08:16;19.85;;;5.05;;
53253;SDS011;75200;53.048;7.552;2024-02-04T01:10:42;17.60;;;4.40;;
53253;SDS011;75200;53.048;7.552;2024-02-04T01:13:08;22.02;;;5.28;;
53253;SDS011;75200;53.048;7.552;2024-02-04T01:15:34;21.05;;;3.58;;
53253;SDS011;75200;53.048;7.552;2024-02-04T01:18:00;14.48;;;4.07;;
53253;SDS011;75200;53.048;7.552;2024-02-04T01:20:26;16.83;;;3.30;;
53253;SDS011;75200;53.048;7.552;2024-02-04T01:22:52;17.25;;;3.15;;
53253;SDS011;75200;53.048;7.552;2024-02-04T01:25:18;13.68;;;2.65;;
53253;SDS011;75200;53.048;7.552;2024-02-04T01:27:44;16.50;;;2.95;;
53253;SDS011;75200;53.048;7.552;2024-02-04T01:30:10;13.45;;;3.15;;
53253;SDS011;75200;53.048;7.552;2024-02-04T01:32:36;13.85;;;3.72;;
53253;SDS011;75200;53.048;7.552;2024-02-04T01:35:02;14.90;;;3.05;;
53253;SDS011;75200;53.048;7.552;2024-02-04T01:37:28;16.00;;;3.03;;
53253;SDS011;75200;53.048;7.552;2024-02-04T01:39:54;8.63;;;2.03;;
53253;SDS011;75200;53.048;7.552;2024-02-04T01:42:20;9.70;;;2.17;;
53253;SDS011;75200;53.048;7.552;2024-02-04T01:44:46;18.77;;;3.13;;
53253;SDS011;75200;53.048;7.552;2024-02-04T01:47:12;13.13;;;2.60;;
53253;SDS011;75200;53.048;7.552;2024-02-04T01:49:38;13.07;;;2.47;;
53253;SDS011;75200;53.048;7.552;2024-02-04T01:52:04;15.38;;;2.72;;
53253;SDS011;75200;53.048;7.552;2024-02-04T01:54:32;16.30;;;3.67;;
53253;SDS011;75200;53.048;7.552;2024-02-04T01:56:58;14.75;;;2.67;;
53253;SDS011;75200;53.048;7.552;2024-02-04T01:59:27;20.33;;;2.40;;
53253;SDS011;75200;53.048;7.552;2024-02-04T02:02:01;17.73;;;3.13;;
53253;SDS011;75200;53.048;7.552;2024-02-04T02:04:28;19.23;;;3.33;;
53253;SDS011;75200;53.048;7.552;2024-02-04T02:06:54;10.73;;;2.10;;
53253;SDS011;75200;53.048;7.552;2024-02-04T02:09:20;15.55;;;2.25;;
53253;SDS011;75200;53.048;7.552;2024-02-04T02:14:23;12.65;;;2.70;;
53253;SDS011;75200;53.048;7.552;2024-02-04T02:16:52;12.57;;;2.10;;
53253;SDS011;75200;53.048;7.552;2024-02-04T02:22:06;11.73;;;2.72;;
53253;SDS011;75200;53.048;7.552;2024-02-04T02:24:49;14.05;;;2.10;;
53253;SDS011;75200;53.048;7.552;2024-02-04T02:27:17;23.77;;;2.67;;
53253;SDS011;75200;53.048;7.552;2024-02-04T02:29:43;19.48;;;2.55;;
53253;SDS011;75200;53.048;7.552;2024-02-04T02:32:09;13.02;;;1.85;;
53253;SDS011;75200;53.048;7.552;2024-02-04T02:34:35;15.38;;;2.30;;
53253;SDS011;75200;53.048;7.552;2024-02-04T02:37:22;8.90;;;2.00;;
53253;SDS011;75200;53.048;7.552;2024-02-04T02:39:55;8.68;;;1.50;;
53253;SDS011;75200;53.048;7.552;2024-02-04T02:44:49;12.35;;;1.90;;
53253;SDS011;75200;53.048;7.552;2024-02-04T02:47:15;12.90;;;2.55;;
53253;SDS011;75200;53.048;7.552;2024-02-04T02:49:42;12.90;;;2.42;;
53253;SDS011;75200;53.048;7.552;2024-02-04T02:52:07;13.65;;;3.08;;
53253;SDS011;75200;53.048;7.552;2024-02-04T02:54:33;15.90;;;2.50;;
53253;SDS011;75200;53.048;7.552;2024-02-04T02:56:59;6.57;;;1.35;;
53253;SDS011;75200;53.048;7.552;2024-02-04T02:59:25;16.00;;;2.05;;
53253;SDS011;75200;53.048;7.552;2024-02-04T03:01:52;10.30;;;1.70;;
53253;SDS011;75200;53.048;7.552;2024-02-04T03:04:18;11.00;;;1.88;;
53253;SDS011;75200;53.048;7.552;2024-02-04T03:06:44;10.93;;;1.55;;
53253;SDS011;75200;53.048;7.552;2024-02-04T03:09:10;14.68;;;2.20;;
53253;SDS011;75200;53.048;7.552;2024-02-04T03:11:36;11.32;;;1.70;;
53253;SDS011;75200;53.048;7.552;2024-02-04T03:14:03;12.40;;;1.92;;
53253;SDS011;75200;53.048;7.552;2024-02-04T03:16:29;14.35;;;1.98;;
53253;SDS011;75200;53.048;7.552;2024-02-04T03:18:55;12.55;;;1.63;;
53253;SDS011;75200;53.048;7.552;2024-02-04T03:21:20;12.43;;;1.90;;
53253;SDS011;75200;53.048;7.552;2024-02-04T03:23:47;10.80;;;1.52;;
53253;SDS011;75200;53.048;7.552;2024-02-04T03:26:16;13.10;;;1.83;;
53253;SDS011;75200;53.048;7.552;2024-02-04T03:28:44;13.90;;;1.85;;
53253;SDS011;75200;53.048;7.552;2024-02-04T03:31:10;15.27;;;2.03;;
53253;SDS011;75200;53.048;7.552;2024-02-04T03:33:36;13.93;;;2.63;;
53253;SDS011;75200;53.048;7.552;2024-02-04T03:36:02;10.55;;;1.52;;
53253;SDS011;75200;53.048;7.552;2024-02-04T03:38:28;15.18;;;2.15;;
53253;SDS011;75200;53.048;7.552;2024-02-04T03:40:54;23.85;;;2.58;;
53253;SDS011;75200;53.048;7.552;2024-02-04T03:43:20;13.40;;;2.08;;
53253;SDS011;75200;53.048;7.552;2024-02-04T03:45:46;16.02;;;2.75;;
53253;SDS011;75200;53.048;7.552;2024-02-04T03:48:12;13.90;;;2.38;;
53253;SDS011;75200;53.048;7.552;2024-02-04T03:50:38;13.90;;;1.90;;
53253;SDS011;75200;53.048;7.552;2024-02-04T03:53:04;14.18;;;1.58;;
53253;SDS011;75200;53.048;7.552;2024-02-04T03:55:30;11.20;;;1.60;;
53253;SDS011;75200;53.048;7.552;2024-02-04T03:57:57;12.38;;;1.90;;
53253;SDS011;75200;53.048;7.552;2024-02-04T04:00:23;13.93;;;2.15;;
53253;SDS011;75200;53.048;7.552;2024-02-04T04:02:48;10.43;;;1.60;;
53253;SDS011;75200;53.048;7.552;2024-02-04T04:05:15;13.23;;;1.52;;
53253;SDS011;75200;53.048;7.552;2024-02-04T04:07:41;13.90;;;1.88;;
53253;SDS011;75200;53.048;7.552;2024-02-04T04:10:07;16.33;;;2.05;;
53253;SDS011;75200;53.048;7.552;2024-02-04T04:12:33;14.90;;;2.10;;
53253;SDS011;75200;53.048;7.552;2024-02-04T04:14:59;13.10;;;1.70;;
53253;SDS011;75200;53.048;7.552;2024-02-04T04:17:25;14.93;;;1.98;;
53253;SDS011;75200;53.048;7.552;2024-02-04T04:19:51;11.07;;;1.55;;
53253;SDS011;75200;53.048;7.552;2024-02-04T04:22:17;11.48;;;1.98;;
53253;SDS011;75200;53.048;7.552;2024-02-04T04:24:43;19.38;;;2.75;;
53253;SDS011;75200;53.048;7.552;2024-02-04T04:27:09;11.85;;;1.98;;
53253;SDS011;75200;53.048;7.552;2024-02-04T04:29:35;17.50;;;2.30;;
53253;SDS011;75200;53.048;7.552;2024-02-04T04:32:01;18.00;;;2.38;;
53253;SDS011;75200;53.048;7.552;2024-02-04T04:34:27;14.02;;;2.28;;
53253;SDS011;75200;53.048;7.552;2024-02-04T04:36:53;19.10;;;3.58;;
53253;SDS011;75200;53.048;7.552;2024-02-04T04:39:19;13.48;;;2.33;;
53253;SDS011;75200;53.048;7.552;2024-02-04T04:41:45;13.27;;;2.58;;
53253;SDS011;75200;53.048;7.552;2024-02-04T04:44:11;14.95;;;3.40;;
53253;SDS011;75200;53.048;7.552;2024-02-04T04:46:38;16.42;;;2.83;;
53253;SDS011;75200;53.048;7.552;2024-02-04T04:49:04;11.93;;;2.40;;
53253;SDS011;75200;53.048;7.552;2024-02-04T04:51:31;12.32;;;2.70;;
53253;SDS011;75200;53.048;7.552;2024-02-04T04:53:57;11.95;;;2.90;;
53253;SDS011;75200;53.048;7.552;2024-02-04T04:56:23;11.07;;;2.92;;
53253;SDS011;75200;53.048;7.552;2024-02-04T04:58:49;16.38;;;3.05;;
53253;SDS011;75200;53.048;7.552;2024-02-04T05:01:15;12.98;;;2.70;;
53253;SDS011;75200;53.048;7.552;2024-02-04T05:03:42;16.92;;;3.75;;
53253;SDS011;75200;53.048;7.552;2024-02-04T05:06:08;15.38;;;3.10;;
53253;SDS011;75200;53.048;7.552;2024-02-04T05:08:34;13.38;;;2.75;;
53253;SDS011;75200;53.048;7.552;2024-02-04T05:11:00;9.82;;;2.28;;
53253;SDS011;75200;53.048;7.552;2024-02-04T05:13:26;13.55;;;2.72;;
53253;SDS011;75200;53.048;7.552;2024-02-04T05:15:52;12.18;;;2.53;;
53253;SDS011;75200;53.048;7.552;2024-02-04T05:18:18;15.23;;;2.38;;
53253;SDS011;75200;53.048;7.552;2024-02-04T05:20:45;17.90;;;1.98;;
53253;SDS011;75200;53.048;7.552;2024-02-04T05:23:11;16.42;;;3.15;;
53253;SDS011;75200;53.048;7.552;2024-02-04T05:25:37;12.70;;;2.08;;
53253;SDS011;75200;53.048;7.552;2024-02-04T05:28:03;15.65;;;2.72;;
53253;SDS011;75200;53.048;7.552;2024-02-04T05:30:29;15.30;;;2.35;;
53253;SDS011;75200;53.048;7.552;2024-02-04T05:32:55;18.73;;;3.97;;
53253;SDS011;75200;53.048;7.552;2024-02-04T05:35:21;12.18;;;2.20;;
53253;SDS011;75200;53.048;7.552;2024-02-04T05:37:47;10.85;;;2.60;;
53253;SDS011;75200;53.048;7.552;2024-02-04T05:40:13;8.32;;;1.70;;
53253;SDS011;75200;53.048;7.552;2024-02-04T05:42:42;15.63;;;2.25;;
53253;SDS011;75200;53.048;7.552;2024-02-04T05:45:08;13.13;;;2.22;;
53253;SDS011;75200;53.048;7.552;2024-02-04T05:47:34;10.93;;;1.77;;
53253;SDS011;75200;53.048;7.552;2024-02-04T05:50:00;11.93;;;1.83;;
53253;SDS011;75200;53.048;7.552;2024-02-04T05:52:26;10.38;;;1.50;;
53253;SDS011;75200;53.048;7.552;2024-02-04T05:54:52;12.27;;;2.25;;
53253;SDS011;75200;53.048;7.552;2024-02-04T05:57:18;17.55;;;3.45;;
53253;SDS011;75200;53.048;7.552;2024-02-04T05:59:45;16.98;;;2.05;;
53253;SDS011;75200;53.048;7.552;2024-02-04T06:02:13;16.08;;;1.98;;
53253;SDS011;75200;53.048;7.552;2024-02-04T06:04:39;9.02;;;1.75;;
53253;SDS011;75200;53.048;7.552;2024-02-04T06:07:05;14.10;;;1.90;;
53253;SDS011;75200;53.048;7.552;2024-02-04T06:09:35;13.90;;;2.17;;
53253;SDS011;75200;53.048;7.552;2024-02-04T06:12:01;12.27;;;1.98;;
53253;SDS011;75200;53.048;7.552;2024-02-04T06:14:27;17.52;;;2.38;;
53253;SDS011;75200;53.048;7.552;2024-02-04T06:16:53;12.45;;;1.88;;
53253;SDS011;75200;53.048;7.552;2024-02-04T06:19:19;15.88;;;2.22;;
53253;SDS011;75200;53.048;7.552;2024-02-04T06:21:45;9.07;;;1.65;;
53253;SDS011;75200;53.048;7.552;2024-02-04T06:24:11;12.20;;;1.88;;
53253;SDS011;75200;53.048;7.552;2024-02-04T06:26:38;16.45;;;2.60;;
53253;SDS011;75200;53.048;7.552;2024-02-04T06:29:04;9.27;;;1.52;;
53253;SDS011;75200;53.048;7.552;2024-02-04T06:31:30;15.90;;;2.03;;
53253;SDS011;75200;53.048;7.552;2024-02-04T06:33:56;11.52;;;1.77;;
53253;SDS011;75200;53.048;7.552;2024-02-04T06:36:22;17.83;;;3.78;;
53253;SDS011;75200;53.048;7.552;2024-02-04T06:38:47;12.98;;;1.50;;
53253;SDS011;75200;53.048;7.552;2024-02-04T06:41:13;16.25;;;2.17;;
53253;SDS011;75200;53.048;7.552;2024-02-04T06:43:39;13.35;;;1.60;;
53253;SDS011;75200;53.048;7.552;2024-02-04T06:46:05;10.27;;;1.60;;
53253;SDS011;75200;53.048;7.552;2024-02-04T06:48:31;9.52;;;1.83;;
53253;SDS011;75200;53.048;7.552;2024-02-04T06:50:56;11.30;;;1.85;;
53253;SDS011;75200;53.048;7.552;2024-02-04T06:53:23;14.55;;;1.95;;
53253;SDS011;75200;53.048;7.552;2024-02-04T06:55:49;13.77;;;1.48;;
53253;SDS011;75200;53.048;7.552;2024-02-04T06:58:15;15.95;;;2.17;;
53253;SDS011;75200;53.048;7.552;2024-02-04T07:00:41;12.63;;;1.45;;
53253;SDS011;75200;53.048;7.552;2024-02-04T07:03:07;10.40;;;1.40;;
53253;SDS011;75200;53.048;7.552;2024-02-04T07:05:33;13.13;;;1.70;;
53253;SDS011;75200;53.048;7.552;2024-02-04T07:07:59;11.82;;;1.65;;
53253;SDS011;75200;53.048;7.552;2024-02-04T07:10:24;7.10;;;1.15;;
53253;SDS011;75200;53.048;7.552;2024-02-04T07:12:51;8.38;;;1.50;;
53253;SDS011;75200;53.048;7.552;2024-02-04T07:15:16;17.25;;;2.65;;
53253;SDS011;75200;53.048;7.552;2024-02-04T07:17:42;14.75;;;2.33;;
53253;SDS011;75200;53.048;7.552;2024-02-04T07:20:08;15.88;;;1.67;;
53253;SDS011;75200;53.048;7.552;2024-02-04T07:22:34;15.57;;;2.28;;
53253;SDS011;75200;53.048;7.552;2024-02-04T07:25:00;11.48;;;1.50;;
53253;SDS011;75200;53.048;7.552;2024-02-04T07:27:27;11.98;;;1.80;;
53253;SDS011;75200;53.048;7.552;2024-02-04T07:29:54;20.75;;;3.03;;
53253;SDS011;75200;53.048;7.552;2024-02-04T07:32:20;12.15;;;1.30;;
53253;SDS011;75200;53.048;7.552;2024-02-04T07:34:46;12.82;;;1.67;;
53253;SDS011;75200;53.048;7.552;2024-02-04T07:37:12;13.98;;;3.40;;
53253;SDS011;75200;53.048;7.552;2024-02-04T07:39:40;13.07;;;1.40;;
53253;SDS011;75200;53.048;7.552;2024-02-04T07:42:06;12.98;;;1.73;;
53253;SDS011;75200;53.048;7.552;2024-02-04T07:44:31;14.38;;;1.50;;
53253;SDS011;75200;53.048;7.552;2024-02-04T07:46:57;11.13;;;1.58;;
53253;SDS011;75200;53.048;7.552;2024-02-04T07:49:23;15.93;;;1.88;;
53253;SDS011;75200;53.048;7.552;2024-02-04T07:51:49;16.67;;;3.42;;
53253;SDS011;75200;53.048;7.552;2024-02-04T07:54:15;12.45;;;1.95;;
53253;SDS011;75200;53.048;7.552;2024-02-04T07:56:41;13.32;;;1.73;;
53253;SDS011;75200;53.048;7.552;2024-02-04T07:59:07;9.18;;;1.42;;
53253;SDS011;75200;53.048;7.552;2024-02-04T08:01:33;16.80;;;2.10;;
53253;SDS011;75200;53.048;7.552;2024-02-04T08:03:58;11.93;;;1.20;;
53253;SDS011;75200;53.048;7.552;2024-02-04T08:06:24;13.30;;;1.35;;
53253;SDS011;75200;53.048;7.552;2024-02-04T08:08:51;22.52;;;3.90;;
53253;SDS011;75200;53.048;7.552;2024-02-04T08:11:16;11.88;;;1.70;;
53253;SDS011;75200;53.048;7.552;2024-02-04T08:13:43;15.52;;;2.05;;
53253;SDS011;75200;53.048;7.552;2024-02-04T08:16:09;8.82;;;1.73;;
53253;SDS011;75200;53.048;7.552;2024-02-04T08:18:35;8.55;;;1.38;;
53253;SDS011;75200;53.048;7.552;2024-02-04T08:21:01;16.08;;;1.88;;
53253;SDS011;75200;53.048;7.552;2024-02-04T08:23:28;10.32;;;1.45;;
53253;SDS011;75200;53.048;7.552;2024-02-04T08:25:54;13.32;;;1.77;;
53253;SDS011;75200;53.048;7.552;2024-02-04T08:28:21;12.25;;;3.13;;
53253;SDS011;75200;53.048;7.552;2024-02-04T08:30:49;10.65;;;1.55;;
53253;SDS011;75200;53.048;7.552;2024-02-04T08:33:15;13.70;;;2.10;;
53253;SDS011;75200;53.048;7.552;2024-02-04T08:35:41;12.35;;;2.00;;
53253;SDS011;75200;53.048;7.552;2024-02-04T08:38:07;10.98;;;1.42;;
53253;SDS011;75200;53.048;7.552;2024-02-04T08:40:33;13.43;;;1.90;;
53253;SDS011;75200;53.048;7.552;2024-02-04T08:42:59;10.13;;;1.70;;
53253;SDS011;75200;53.048;7.552;2024-02-04T08:45:24;15.35;;;1.80;;
53253;SDS011;75200;53.048;7.552;2024-02-04T08:47:50;12.13;;;1.40;;
53253;SDS011;75200;53.048;7.552;2024-02-04T08:50:16;14.13;;;1.70;;
53253;SDS011;75200;53.048;7.552;2024-02-04T08:52:42;11.88;;;1.73;;
53253;SDS011;75200;53.048;7.552;2024-02-04T08:55:08;17.42;;;2.20;;
53253;SDS011;75200;53.048;7.552;2024-02-04T08:57:34;12.50;;;1.75;;
53253;SDS011;75200;53.048;7.552;2024-02-04T09:00:04;9.45;;;1.45;;
53253;SDS011;75200;53.048;7.552;2024-02-04T09:02:51;13.95;;;2.45;;
53253;SDS011;75200;53.048;7.552;2024-02-04T09:05:17;12.15;;;1.65;;
53253;SDS011;75200;53.048;7.552;2024-02-04T09:07:44;10.32;;;1.50;;
53253;SDS011;75200;53.048;7.552;2024-02-04T09:10:10;13.80;;;1.67;;
53253;SDS011;75200;53.048;7.552;2024-02-04T09:12:36;13.20;;;1.88;;
53253;SDS011;75200;53.048;7.552;2024-02-04T09:15:02;15.23;;;2.03;;
53253;SDS011;75200;53.048;7.552;2024-02-04T09:17:30;13.25;;;1.70;;
53253;SDS011;75200;53.048;7.552;2024-02-04T09:19:58;16.88;;;1.90;;
53253;SDS011;75200;53.048;7.552;2024-02-04T09:22:24;9.73;;;1.38;;
53253;SDS011;75200;53.048;7.552;2024-02-04T09:24:50;20.27;;;2.55;;
53253;SDS011;75200;53.048;7.552;2024-02-04T09:27:16;18.02;;;2.25;;
53253;SDS011;75200;53.048;7.552;2024-02-04T09:29:42;18.08;;;2.47;;
53253;SDS011;75200;53.048;7.552;2024-02-04T09:32:08;13.52;;;2.15;;
53253;SDS011;75200;53.048;7.552;2024-02-04T09:34:34;14.07;;;2.00;;
53253;SDS011;75200;53.048;7.552;2024-02-04T09:37:00;9.70;;;1.17;;
53253;SDS011;75200;53.048;7.552;2024-02-04T09:39:26;12.02;;;1.85;;
53253;SDS011;75200;53.048;7.552;2024-02-04T09:41:52;13.23;;;2.55;;
53253;SDS011;75200;53.048;7.552;2024-02-04T09:44:19;13.15;;;2.35;;
53253;SDS011;75200;53.048;7.552;2024-02-04T09:46:46;19.20;;;2.22;;
53253;SDS011;75200;53.048;7.552;2024-02-04T09:49:13;12.75;;;2.08;;
53253;SDS011;75200;53.048;7.552;2024-02-04T09:51:42;12.07;;;2.05;;
53253;SDS011;75200;53.048;7.552;2024-02-04T09:54:09;8.95;;;1.83;;
53253;SDS011;75200;53.048;7.552;2024-02-04T09:56:37;12.63;;;1.67;;
53253;SDS011;75200;53.048;7.552;2024-02-04T09:59:03;10.13;;;1.52;;
53253;SDS011;75200;53.048;7.552;2024-02-04T10:01:31;12.77;;;2.05;;
53253;SDS011;75200;53.048;7.552;2024-02-04T10:03:57;12.18;;;1.85;;
53253;SDS011;75200;53.048;7.552;2024-02-04T10:06:23;13.57;;;2.03;;
53253;SDS011;75200;53.048;7.552;2024-02-04T10:08:49;16.27;;;3.15;;
53253;SDS011;75200;53.048;7.552;2024-02-04T10:11:15;12.43;;;1.77;;
53253;SDS011;75200;53.048;7.552;2024-02-04T10:13:45;12.57;;;2.00;;
53253;SDS011;75200;53.048;7.552;2024-02-04T10:16:12;12.25;;;1.85;;
53253;SDS011;75200;53.048;7.552;2024-02-04T10:18:44;19.90;;;2.90;;
53253;SDS011;75200;53.048;7.552;2024-02-04T10:21:14;14.95;;;3.40;;
53253;SDS011;75200;53.048;7.552;2024-02-04T10:23:44;6.47;;;1.33;;
53253;SDS011;75200;53.048;7.552;2024-02-04T10:26:11;5.55;;;1.33;;
53253;SDS011;75200;53.048;7.552;2024-02-04T10:28:37;12.88;;;2.50;;
53253;SDS011;75200;53.048;7.552;2024-02-04T10:31:04;15.30;;;3.53;;
53253;SDS011;75200;53.048;7.552;2024-02-04T10:33:30;12.45;;;1.77;;
53253;SDS011;75200;53.048;7.552;2024-02-04T10:35:57;14.68;;;2.83;;
53253;SDS011;75200;53.048;7.552;2024-02-04T10:38:23;12.57;;;1.88;;
53253;SDS011;75200;53.048;7.552;2024-02-04T10:40:53;10.93;;;1.80;;
53253;SDS011;75200;53.048;7.552;2024-02-04T10:43:20;12.60;;;1.60;;
53253;SDS011;75200;53.048;7.552;2024-02-04T10:45:47;9.20;;;1.63;;
53253;SDS011;75200;53.048;7.552;2024-02-04T10:48:19;10.95;;;2.75;;
53253;SDS011;75200;53.048;7.552;2024-02-04T10:50:46;11.77;;;1.73;;
53253;SDS011;75200;53.048;7.552;2024-02-04T10:53:14;11.75;;;2.67;;
53253;SDS011;75200;53.048;7.552;2024-02-04T10:55:43;11.52;;;1.80;;
53253;SDS011;75200;53.048;7.552;2024-02-04T10:58:12;8.75;;;1.75;;
53253;SDS011;75200;53.048;7.552;2024-02-04T11:00:42;9.77;;;1.65;;
53253;SDS011;75200;53.048;7.552;2024-02-04T11:03:08;9.02;;;2.05;;
53253;SDS011;75200;53.048;7.552;2024-02-04T11:05:35;13.70;;;1.63;;
53253;SDS011;75200;53.048;7.552;2024-02-04T11:08:04;8.75;;;1.75;;
53253;SDS011;75200;53.048;7.552;2024-02-04T11:10:30;16.27;;;1.90;;
53253;SDS011;75200;53.048;7.552;2024-02-04T11:12:59;14.00;;;2.03;;
53253;SDS011;75200;53.048;7.552;2024-02-04T11:15:29;9.93;;;1.73;;
53253;SDS011;75200;53.048;7.552;2024-02-04T11:27:04;8.23;;;1.23;;
53253;SDS011;75200;53.048;7.552;2024-02-04T11:29:30;13.27;;;1.52;;
53253;SDS011;75200;53.048;7.552;2024-02-04T11:31:56;12.32;;;2.00;;
53253;SDS011;75200;53.048;7.552;2024-02-04T11:34:23;9.93;;;1.35;;
53253;SDS011;75200;53.048;7.552;2024-02-04T11:36:49;7.85;;;1.52;;
53253;SDS011;75200;53.048;7.552;2024-02-04T11:39:17;8.88;;;2.08;;
53253;SDS011;75200;53.048;7.552;2024-02-04T11:41:47;11.50;;;1.48;;
53253;SDS011;75200;53.048;7.552;2024-02-04T11:44:24;11.27;;;1.63;;
53253;SDS011;75200;53.048;7.552;2024-02-04T11:46:51;6.35;;;1.50;;
53253;SDS011;75200;53.048;7.552;2024-02-04T11:49:18;8.50;;;1.33;;
53253;SDS011;75200;53.048;7.552;2024-02-04T11:51:45;8.40;;;1.80;;
53253;SDS011;75200;53.048;7.552;2024-02-04T11:54:14;5.22;;;0.90;;
53253;SDS011;75200;53.048;7.552;2024-02-04T11:56:41;7.22;;;1.00;;
53253;SDS011;75200;53.048;7.552;2024-02-04T11:59:08;4.57;;;1.23;;
53253;SDS011;75200;53.048;7.552;2024-02-04T12:01:34;6.68;;;1.00;;
53253;SDS011;75200;53.048;7.552;2024-02-04T12:04:14;3.80;;;0.75;;
53253;SDS011;75200;53.048;7.552;2024-02-04T12:06:41;11.68;;;1.35;;
53253;SDS011;75200;53.048;7.552;2024-02-04T12:09:08;12.38;;;1.60;;
53253;SDS011;75200;53.048;7.552;2024-02-04T12:11:35;10.73;;;1.55;;
53253;SDS011;75200;53.048;7.552;2024-02-04T12:14:04;8.48;;;2.05;;
53253;SDS011;75200;53.048;7.552;2024-02-04T12:16:32;11.05;;;1.70;;
53253;SDS011;75200;53.048;7.552;2024-02-04T12:19:00;12.10;;;2.05;;
53253;SDS011;75200;53.048;7.552;2024-02-04T12:21:29;15.95;;;2.00;;
53253;SDS011;75200;53.048;7.552;2024-02-04T12:23:55;11.75;;;1.30;;
53253;SDS011;75200;53.048;7.552;2024-02-04T12:26:22;10.70;;;1.45;;
53253;SDS011;75200;53.048;7.552;2024-02-04T12:28:48;9.68;;;1.80;;
53253;SDS011;75200;53.048;7.552;2024-02-04T12:31:21;9.68;;;1.10;;
53253;SDS011;75200;53.048;7.552;2024-02-04T12:33:53;14.40;;;1.52;;
53253;SDS011;75200;53.048;7.552;2024-02-04T12:36:26;10.65;;;1.33;;
53253;SDS011;75200;53.048;7.552;2024-02-04T12:38:53;9.68;;;1.50;;
53253;SDS011;75200;53.048;7.552;2024-02-04T12:41:23;10.15;;;1.58;;
53253;SDS011;75200;53.048;7.552;2024-02-04T12:43:54;10.32;;;1.33;;
53253;SDS011;75200;53.048;7.552;2024-02-04T12:46:21;6.63;;;0.88;;
53253;SDS011;75200;53.048;7.552;2024-02-04T12:48:51;6.47;;;1.08;;
53253;SDS011;75200;53.048;7.552;2024-02-04T12:54:06;9.18;;;1.35;;
53253;SDS011;75200;53.048;7.552;2024-02-04T12:59:12;7.47;;;1.42;;
53253;SDS011;75200;53.048;7.552;2024-02-04T13:02:00;9.38;;;1.33;;
53253;SDS011;75200;53.048;7.552;2024-02-04T13:04:39;8.38;;;1.15;;
53253;SDS011;75200;53.048;7.552;2024-02-04T13:07:10;10.63;;;1.35;;
53253;SDS011;75200;53.048;7.552;2024-02-04T13:09:39;7.32;;;1.20;;
53253;SDS011;75200;53.048;7.552;2024-02-04T13:12:05;8.95;;;1.25;;
53253;SDS011;75200;53.048;7.552;2024-02-04T13:14:35;7.85;;;1.10;;
53253;SDS011;75200;53.048;7.552;2024-02-04T13:17:04;6.45;;;1.10;;
53253;SDS011;75200;53.048;7.552;2024-02-04T13:19:34;10.65;;;1.45;;
53253;SDS011;75200;53.048;7.552;2024-02-04T13:22:01;8.18;;;1.33;;
53253;SDS011;75200;53.048;7.552;2024-02-04T13:24:31;6.18;;;1.33;;
53253;SDS011;75200;53.048;7.552;2024-02-04T13:26:58;10.88;;;1.77;;
53253;SDS011;75200;53.048;7.552;2024-02-04T13:29:26;7.55;;;1.30;;
53253;SDS011;75200;53.048;7.552;2024-02-04T13:31:52;3.97;;;0.95;;
53253;SDS011;75200;53.048;7.552;2024-02-04T13:34:18;6.70;;;1.40;;
53253;SDS011;75200;53.048;7.552;2024-02-04T13:36:45;7.75;;;1.40;;
53253;SDS011;75200;53.048;7.552;2024-02-04T13:39:11;5.70;;;0.98;;
53253;SDS011;75200;53.048;7.552;2024-02-04T13:41:38;11.27;;;1.33;;
53253;SDS011;75200;53.048;7.552;2024-02-04T13:44:04;6.05;;;1.15;;
53253;SDS011;75200;53.048;7.552;2024-02-04T13:46:30;5.15;;;0.98;;
53253;SDS011;75200;53.048;7.552;2024-02-04T13:48:57;8.18;;;1.10;;
53253;SDS011;75200;53.048;7.552;2024-02-04T13:51:23;5.28;;;1.10;;
53253;SDS011;75200;53.048;7.552;2024-02-04T13:53:49;8.20;;;1.42;;
53253;SDS011;75200;53.048;7.552;2024-02-04T13:56:15;6.55;;;1.33;;
53253;SDS011;75200;53.048;7.552;2024-02-04T13:58:44;3.53;;;1.10;;
53253;SDS011;75200;53.048;7.552;2024-02-04T14:01:10;6.88;;;0.88;;
53253;SDS011;75200;53.048;7.552;2024-02-04T14:03:37;9.10;;;1.45;;
53253;SDS011;75200;53.048;7.552;2024-02-04T14:06:03;3.20;;;0.93;;
53253;SDS011;75200;53.048;7.552;2024-02-04T14:08:29;4.78;;;0.77;;
53253;SDS011;75200;53.048;7.552;2024-02-04T14:10:55;8.15;;;1.08;;
53253;SDS011;75200;53.048;7.552;2024-02-04T14:13:21;5.30;;;1.10;;
53253;SDS011;75200;53.048;7.552;2024-02-04T14:15:47;3.55;;;0.88;;
53253;SDS011;75200;53.048;7.552;2024-02-04T14:18:13;6.00;;;0.80;;
53253;SDS011;75200;53.048;7.552;2024-02-04T14:20:39;8.93;;;1.52;;
53253;SDS011;75200;53.048;7.552;2024-02-04T14:23:06;7.90;;;1.33;;
53253;SDS011;75200;53.048;7.552;2024-02-04T14:25:34;9.00;;;1.33;;
53253;SDS011;75200;53.048;7.552;2024-02-04T14:28:00;7.75;;;1.58;;
53253;SDS011;75200;53.048;7.552;2024-02-04T14:30:26;12.68;;;1.13;;
53253;SDS011;75200;53.048;7.552;2024-02-04T14:32:52;7.93;;;1.42;;
53253;SDS011;75200;53.048;7.552;2024-02-04T14:35:18;8.68;;;1.33;;
53253;SDS011;75200;53.048;7.552;2024-02-04T14:37:44;10.50;;;1.23;;
53253;SDS011;75200;53.048;7.552;2024-02-04T14:40:10;9.93;;;1.13;;
53253;SDS011;75200;53.048;7.552;2024-02-04T14:42:36;5.65;;;0.88;;
53253;SDS011;75200;53.048;7.552;2024-02-04T14:45:03;9.32;;;1.42;;
53253;SDS011;75200;53.048;7.552;2024-02-04T14:47:29;9.98;;;1.77;;
53253;SDS011;75200;53.048;7.552;2024-02-04T14:49:55;4.75;;;0.90;;
53253;SDS011;75200;53.048;7.552;2024-02-04T14:52:21;8.93;;;1.60;;
53253;SDS011;75200;53.048;7.552;2024-02-04T14:54:47;6.85;;;1.05;;
53253;SDS011;75200;53.048;7.552;2024-02-04T14:57:12;8.60;;;1.10;;